Time;durP1;ratioP1;P1;durP2;ratioP2;P2;SDS_P1;SDS_P2;PMS_P1;PMS_P2;Temp;Humidity;BMP_temperature;BMP_pressure;BME280_temperature;BME280_humidity;BME280_pressure;Samples;Min_cycle;Max_cycle;Signal;HPM_P1;HPM_P2
2022/04/17 00:01:47;;;;;;;3.60;3.50;;;;;;;6.46;42.01;102598.31;6119596;23;20032;-71
2022/04/17 00:04:15;;;;;;;4.00;3.80;;;;;;;6.44;42.81;102542.69;6112689;23;20270;-71
2022/04/17 00:06:41;;;;;;;5.25;5.05;;;;;;;6.75;42.43;102590.31;6110485;23;20212;-71
2022/04/17 00:09:08;;;;;;;3.60;3.50;;;;;;;6.70;42.88;102589.50;6114186;23;20017;-71
2022/04/17 00:11:35;;;;;;;5.28;5.07;;;;;;;6.34;42.58;102527.97;6117479;23;20024;-71
2022/04/17 00:14:01;;;;;;;3.60;3.50;;;;;;;6.76;42.01;102599.88;6100105;23;20045;-71
2022/04/17 00:16:28;;;;;;;4.40;4.20;;;;;;;6.74;42.79;102595.56;6115134;23;20076;-71
2022/04/17 00:18:54;;;;;;;3.72;3.63;;;;;;;6.61;43.33;102615.63;6116144;23;20090;-71
2022/04/17 00:21:22;;;;;;;3.75;3.65;;;;;;;6.38;43.27;102529.66;6122980;23;20017;-71
2022/04/17 00:23:49;;;;;;;4.05;3.85;;;;;;;6.67;44.41;102594.72;6096219;23;20234;-71
2022/04/17 00:26:15;;;;;;;3.90;3.80;;;;;;;6.69;43.92;102603.41;6131219;23;20071;-71
2022/04/17 00:28:42;;;;;;;5.05;4.85;;;;;;;6.47;44.22;102554.81;6113895;23;20013;-71
2022/04/17 00:31:08;;;;;;;3.70;3.60;;;;;;;5.48;44.43;102408.41;6118601;23;20096;-71
2022/04/17 00:33:35;;;;;;;5.00;4.80;;;;;;;6.43;44.06;102553.97;6118246;23;20094;-71
2022/04/17 00:36:01;;;;;;;4.10;3.90;;;;;;;6.31;44.59;102554.88;6121180;23;20013;-71
2022/04/17 00:38:28;;;;;;;4.72;4.53;;;;;;;6.61;43.80;102596.50;6114475;23;20026;-71
2022/04/17 00:40:54;;;;;;;3.50;3.40;;;;;;;6.59;44.47;102593.88;6117373;23;20041;-71
2022/04/17 00:43:33;;;;;;;4.00;3.80;;;;;;;6.36;45.39;102560.09;6125441;23;20561;-71
2022/04/17 00:46:00;;;;;;;3.90;3.75;;;;;;;5.99;44.98;102515.94;6095325;23;20014;-71
2022/04/17 00:48:26;;;;;;;4.70;4.50;;;;;;;6.36;46.18;102589.66;6123954;23;20012;-71
2022/04/17 00:50:56;;;;;;;3.85;3.70;;;;;;;6.37;46.38;102583.56;6137363;23;20489;-71
2022/04/17 00:53:26;;;;;;;4.07;3.88;;;;;;;6.26;46.96;102564.50;6127742;23;20036;-71
2022/04/17 00:55:53;;;;;;;3.50;3.40;;;;;;;6.34;46.30;102577.50;6126610;23;20104;-71
2022/04/17 00:58:20;;;;;;;3.80;3.60;;;;;;;5.91;46.47;102515.94;6124546;23;20566;-71
2022/04/17 01:00:47;;;;;;;3.50;3.40;;;;;;;6.34;46.73;102588.78;6117371;23;20020;-71
2022/04/17 01:03:15;;;;;;;3.45;3.35;;;;;;;6.12;47.66;102548.91;6131003;23;20050;-70
2022/04/17 01:05:46;;;;;;;5.35;5.15;;;;;;;6.22;48.32;102581.03;6128902;23;20427;-71
2022/04/17 01:08:14;;;;;;;3.40;3.30;;;;;;;6.09;48.05;102548.03;6134008;23;21050;-70
2022/04/17 01:10:41;;;;;;;4.68;4.47;;;;;;;6.21;49.00;102567.97;6122369;23;20088;-71
2022/04/17 01:13:10;;;;;;;3.47;3.38;;;;;;;5.56;48.38;102462.19;6129519;23;20089;-71
2022/04/17 01:15:37;;;;;;;5.35;5.15;;;;;;;5.93;48.99;102542.88;6122494;23;20463;-71
2022/04/17 01:18:04;;;;;;;4.25;4.05;;;;;;;6.17;49.10;102568.00;6121846;23;20385;-70
2022/04/17 01:20:31;;;;;;;5.30;5.10;;;;;;;6.24;48.93;102561.03;6124256;23;20033;-71
2022/04/17 01:28:29;;;;;;;4.70;4.50;;;;;;;6.08;48.83;102535.91;6123621;23;20450;-68
2022/04/17 01:30:56;;;;;;;3.92;3.72;;;;;;;6.24;49.06;102568.00;6095823;23;20034;-70
2022/04/17 01:33:23;;;;;;;3.60;3.50;;;;;;;6.19;49.11;102566.25;6120901;23;20533;-69
2022/04/17 01:35:49;;;;;;;3.88;3.67;;;;;;;6.11;48.75;102541.09;6122786;23;20005;-71
2022/04/17 01:38:16;;;;;;;6.00;5.70;;;;;;;5.89;50.19;102512.44;6112188;23;20450;-71
2022/04/17 01:40:42;;;;;;;4.40;4.20;;;;;;;6.01;49.85;102539.38;6128018;23;20024;-71
2022/04/17 01:43:12;;;;;;;3.50;3.40;;;;;;;6.03;50.49;102558.50;6126793;23;20032;-70
2022/04/17 01:45:39;;;;;;;5.45;5.25;;;;;;;6.01;50.77;102555.03;6095067;23;20271;-70
2022/04/17 01:48:05;;;;;;;3.75;3.55;;;;;;;5.98;50.48;102561.97;6140111;23;20080;-71
2022/04/17 01:50:32;;;;;;;5.65;5.43;;;;;;;5.71;51.61;102520.31;6090237;23;20019;-71
2022/04/17 01:53:00;;;;;;;3.38;3.28;;;;;;;5.81;51.31;102535.06;6106223;23;20088;-71
2022/04/17 01:55:28;;;;;;;4.18;4.00;;;;;;;5.95;50.79;102555.91;6123176;23;20018;-70
2022/04/17 01:57:54;;;;;;;3.90;3.70;;;;;;;5.65;51.41;102513.38;6102183;23;20013;-71
2022/04/17 02:00:22;;;;;;;3.58;3.47;;;;;;;5.87;51.48;102552.41;6090044;23;20033;-71
2022/04/17 02:02:49;;;;;;;3.10;3.00;;;;;;;5.96;51.63;102555.03;6117320;23;20036;-71
2022/04/17 02:05:15;;;;;;;3.47;3.38;;;;;;;5.79;51.22;102523.78;6124305;23;20029;-70
2022/04/17 02:07:42;;;;;;;4.85;4.65;;;;;;;5.91;51.99;102544.63;6108821;23;20023;-70
2022/04/17 02:10:08;;;;;;;3.60;3.50;;;;;;;5.50;51.65;102479.59;6116187;23;20096;-70
2022/04/17 02:12:36;;;;;;;5.13;4.93;;;;;;;5.79;51.78;102514.25;6128171;23;20025;-71
2022/04/17 02:15:02;;;;;;;3.40;3.30;;;;;;;5.91;51.67;102547.22;6121468;23;20093;-70
2022/04/17 02:17:30;;;;;;;3.50;3.40;;;;;;;5.82;51.93;102535.94;6133874;23;20024;-71
2022/04/17 02:19:57;;;;;;;3.33;3.22;;;;;;;5.77;52.80;102543.75;6127875;23;20039;-71
2022/04/17 02:22:24;;;;;;;3.58;3.47;;;;;;;5.57;53.28;102528.16;6125790;23;20088;-71
2022/04/17 02:24:50;;;;;;;3.50;3.40;;;;;;;5.30;53.67;102487.44;6102228;23;20196;-71
2022/04/17 02:27:17;;;;;;;3.40;3.30;;;;;;;5.70;53.89;102542.06;6122441;23;20033;-71
2022/04/17 02:29:43;;;;;;;3.85;3.72;;;;;;;5.71;52.90;102536.84;6114046;23;20541;-71
2022/04/17 02:32:10;;;;;;;3.60;3.50;;;;;;;5.71;53.50;102533.34;6129375;23;20190;-71
2022/04/17 02:34:37;;;;;;;5.25;5.05;;;;;;;5.68;52.93;102522.97;6119129;23;20013;-71
2022/04/17 02:37:03;;;;;;;3.30;3.20;;;;;;;5.65;53.76;102525.56;6124913;23;20453;-71
2022/04/17 02:39:31;;;;;;;4.78;4.57;;;;;;;5.37;54.12;102483.94;6110351;23;20322;-70
2022/04/17 02:41:57;;;;;;;3.40;3.30;;;;;;;5.63;53.44;102529.91;6117990;23;20349;-71
2022/04/17 02:44:23;;;;;;;3.33;3.22;;;;;;;5.24;54.21;102472.69;6118725;23;20049;-71
2022/04/17 02:49:35;;;;;;;5.50;5.30;;;;;;;5.35;55.66;102520.41;6119585;23;20252;-70
2022/04/17 02:52:02;;;;;;;3.15;3.05;;;;;;;5.00;56.03;102481.38;6103873;23;20303;-70
2022/04/17 02:54:28;;;;;;;4.32;4.13;;;;;;;5.35;54.95;102517.81;6119332;23;20047;-70
2022/04/17 02:56:54;;;;;;;3.22;3.13;;;;;;;5.23;55.97;102507.38;6127493;23;20097;-70
2022/04/17 02:59:21;;;;;;;3.83;3.63;;;;;;;5.18;55.38;102485.72;6117686;23;20287;-71
2022/04/17 03:07:18;;;;;;;3.30;3.20;;;;;;;5.27;56.10;102503.06;6118015;23;20528;-71
2022/04/17 03:09:44;;;;;;;3.63;3.53;;;;;;;5.04;55.81;102490.06;6115525;23;20275;-71
2022/04/17 03:12:10;;;;;;;3.50;3.40;;;;;;;5.15;56.09;102515.22;6133589;23;20401;-70
2022/04/17 03:14:37;;;;;;;5.03;4.82;;;;;;;5.15;56.18;102512.63;6124852;23;20057;-71
2022/04/17 03:17:04;;;;;;;3.40;3.30;;;;;;;4.77;56.72;102469.25;6131655;23;20040;-71
2022/04/17 03:19:30;;;;;;;6.32;5.90;;;;;;;4.78;57.45;102486.56;6123459;23;20031;-71
2022/04/17 03:21:57;;;;;;;3.42;3.33;;;;;;;4.86;57.09;102501.34;6101944;23;20033;-71
2022/04/17 03:24:24;;;;;;;3.50;3.40;;;;;;;4.61;58.10;102470.13;6084394;23;20058;-71
2022/04/17 03:26:50;;;;;;;3.45;3.35;;;;;;;4.59;58.65;102487.41;6090952;23;20036;-71
2022/04/17 03:29:16;;;;;;;3.40;3.30;;;;;;;4.80;58.40;102517.81;6106187;23;20030;-71
2022/04/17 03:31:44;;;;;;;4.03;3.83;;;;;;;4.79;58.70;102516.03;6117619;23;20400;-70
2022/04/17 03:34:12;;;;;;;3.35;3.25;;;;;;;4.76;58.67;102514.31;6098815;23;20021;-70
2022/04/17 03:36:39;;;;;;;5.07;4.88;;;;;;;4.28;58.95;102435.38;6106700;23;20061;-70
2022/04/17 03:39:07;;;;;;;3.15;3.05;;;;;;;4.56;58.93;102490.03;6115112;23;20029;-70
2022/04/17 03:41:34;;;;;;;5.05;4.85;;;;;;;3.49;58.80;102311.38;6109320;23;20095;-71
2022/04/17 03:44:04;;;;;;;3.50;3.40;;;;;;;4.00;58.84;102403.28;6112374;23;20077;-71
2022/04/17 03:46:31;;;;;;;5.65;5.40;;;;;;;4.26;59.16;102433.66;6095743;23;20033;-70
2022/04/17 03:48:57;;;;;;;3.17;3.08;;;;;;;4.05;59.57;102404.16;6121202;23;20069;-71
2022/04/17 03:51:24;;;;;;;3.47;3.35;;;;;;;4.37;58.87;102469.19;6119693;23;20018;-71
2022/04/17 03:53:50;;;;;;;4.25;4.05;;;;;;;4.40;60.18;102481.31;6120378;23;20085;-70
2022/04/17 03:56:17;;;;;;;3.38;3.28;;;;;;;4.49;59.22;102490.88;6123184;23;20025;-70
2022/04/17 03:58:43;;;;;;;4.50;4.30;;;;;;;3.89;59.35;102410.16;6112376;23;20258;-71
2022/04/17 04:01:10;;;;;;;3.38;3.28;;;;;;;4.02;59.71;102431.84;6113073;23;20147;-71
2022/04/17 04:03:39;;;;;;;5.05;4.85;;;;;;;4.22;59.67;102484.75;6129170;23;20017;-70
2022/04/17 04:06:06;;;;;;;3.45;3.35;;;;;;;4.40;60.02;102509.91;6112125;23;20021;-71
2022/04/17 04:08:32;;;;;;;5.00;4.80;;;;;;;4.24;59.60;102477.81;6116250;23;20246;-68
2022/04/17 04:10:58;;;;;;;3.40;3.30;;;;;;;4.14;60.30;102463.06;6131182;23;20077;-71
2022/04/17 04:13:25;;;;;;;3.30;3.20;;;;;;;4.13;60.22;102464.81;6120783;23;20018;-70
2022/04/17 04:15:55;;;;;;;3.10;3.00;;;;;;;4.26;59.45;102485.63;6114000;23;20021;-71
2022/04/17 04:18:21;;;;;;;3.30;3.20;;;;;;;4.25;60.32;102492.56;6123488;23;20009;-71
2022/04/17 04:20:48;;;;;;;3.60;3.50;;;;;;;4.54;59.89;102516.03;6129011;23;20138;-71
2022/04/17 04:23:14;;;;;;;3.50;3.40;;;;;;;4.62;59.17;102517.78;6119979;23;20010;-71
2022/04/17 04:25:41;;;;;;;4.72;4.53;;;;;;;4.64;59.45;102514.31;6115665;23;20058;-70
2022/04/17 04:30:53;;;;;;;3.50;3.40;;;;;;;4.52;59.12;102480.50;6133829;23;20035;-71
2022/04/17 04:33:20;;;;;;;3.38;3.28;;;;;;;4.62;58.84;102471.81;6123611;23;20034;-71
2022/04/17 04:35:46;;;;;;;4.25;4.05;;;;;;;4.76;59.87;102495.25;6112925;23;20035;-71
2022/04/17 04:38:12;;;;;;;3.30;3.20;;;;;;;3.83;59.62;102317.53;6103944;23;20021;-71
2022/04/17 04:40:39;;;;;;;4.60;4.40;;;;;;;4.65;59.53;102471.84;6118024;23;20105;-71
2022/04/17 04:43:05;;;;;;;3.80;3.60;;;;;;;4.51;60.40;102440.63;6123089;23;20182;-71
2022/04/17 04:49:29;;;;;;;3.28;3.17;;;;;;;4.44;59.51;102427.63;6111462;23;20077;-71
2022/04/17 04:51:03;;;;;;;3.35;3.25;;;;;;;4.44;59.48;102425.88;6112722;23;20093;-70
2022/04/17 04:53:29;;;;;;;4.75;4.55;;;;;;;4.71;59.06;102468.34;6101366;23;20418;-70
2022/04/17 04:55:56;;;;;;;3.20;3.10;;;;;;;4.64;59.92;102458.84;6111965;23;20221;-70
2022/04/17 04:58:22;;;;;;;3.17;3.08;;;;;;;4.46;60.47;102437.13;6109388;23;20031;-70
2022/04/17 05:00:49;;;;;;;3.20;3.10;;;;;;;4.49;59.69;102442.38;6100299;23;20505;-70
2022/04/17 05:03:15;;;;;;;3.30;3.20;;;;;;;4.80;60.61;102497.00;6112611;23;20426;-70
2022/04/17 05:05:41;;;;;;;5.35;5.10;;;;;;;4.75;60.91;102484.00;6124610;23;20017;-70
2022/04/17 05:08:08;;;;;;;3.10;3.00;;;;;;;4.62;60.07;102456.22;6120228;23;20036;-70
2022/04/17 05:10:34;;;;;;;5.25;5.05;;;;;;;4.58;60.67;102451.91;6112105;23;20009;-69
2022/04/17 05:13:01;;;;;;;3.10;3.00;;;;;;;4.50;61.12;102438.88;6122982;23;20218;-70
2022/04/17 05:15:27;;;;;;;3.70;3.58;;;;;;;4.60;60.93;102445.81;6098655;23;20031;-70
2022/04/17 05:17:54;;;;;;;3.30;3.20;;;;;;;4.84;60.39;102482.25;6099723;23;20041;-70
2022/04/17 05:20:20;;;;;;;3.80;3.60;;;;;;;4.72;60.92;102451.91;6113564;23;20048;-70
2022/04/17 05:22:53;;;;;;;3.33;3.22;;;;;;;4.67;61.67;102433.72;6115128;23;20080;-70
2022/04/17 05:25:19;;;;;;;3.30;3.20;;;;;;;4.99;61.66;102482.25;6112813;23;20462;-70
2022/04/17 05:27:46;;;;;;;3.15;3.05;;;;;;;5.14;60.69;102479.63;6110710;23;20068;-70
2022/04/17 05:30:12;;;;;;;3.20;3.10;;;;;;;5.33;60.66;102482.22;6124388;23;20029;-70
2022/04/17 05:32:39;;;;;;;4.75;4.55;;;;;;;5.25;59.89;102447.53;6110257;23;20014;-70
2022/04/17 05:35:06;;;;;;;3.38;3.28;;;;;;;5.77;58.80;102479.50;6112322;23;20109;-70
2022/04/17 05:37:32;;;;;;;5.18;4.97;;;;;;;6.19;57.88;102456.78;6116411;23;20009;-70
2022/04/17 05:39:59;;;;;;;3.50;3.40;;;;;;;6.76;55.32;102464.19;6110650;23;20351;-70
2022/04/17 05:42:25;;;;;;;4.00;3.85;;;;;;;7.06;54.18;102449.16;6113522;23;20112;-70
2022/04/17 05:44:52;;;;;;;3.90;3.70;;;;;;;7.61;52.54;102472.97;6112320;23;20023;-71
2022/04/17 05:47:19;;;;;;;3.90;3.70;;;;;;;7.49;51.27;102451.31;6111567;23;20092;-70
2022/04/17 05:49:45;;;;;;;4.30;4.10;;;;;;;7.51;52.36;102480.91;6094928;23;20089;-71
2022/04/17 05:52:12;;;;;;;3.60;3.50;;;;;;;6.84;52.57;102400.66;6125353;23;20121;-71
2022/04/17 05:54:43;;;;;;;3.90;3.70;;;;;;;7.10;52.75;102479.59;6116287;23;20434;-71
2022/04/17 05:57:10;;;;;;;3.40;3.30;;;;;;;6.94;53.40;102467.53;6111734;23;20037;-70
2022/04/17 05:59:36;;;;;;;5.70;5.45;;;;;;;6.95;53.12;102490.16;6108663;23;20017;-70
2022/04/17 06:02:03;;;;;;;3.60;3.50;;;;;;;6.70;54.12;102452.97;6110576;23;20310;-70
2022/04/17 06:04:34;;;;;;;6.45;6.15;;;;;;;6.89;54.95;102484.97;6105759;23;20009;-70
2022/04/17 06:07:01;;;;;;;3.40;3.30;;;;;;;6.67;53.96;102472.09;6110432;23;20018;-71
2022/04/17 06:09:27;;;;;;;4.32;4.13;;;;;;;6.82;54.21;102478.09;6112894;23;20081;-71
2022/04/17 06:11:53;;;;;;;3.50;3.40;;;;;;;6.92;55.11;102477.13;6127847;23;20019;-71
2022/04/17 06:14:20;;;;;;;3.60;3.50;;;;;;;6.99;54.36;102479.66;6121287;23;20084;-71
2022/04/17 06:16:47;;;;;;;3.58;3.47;;;;;;;7.03;54.27;102470.06;6118227;23;20026;-70
2022/04/17 06:19:14;;;;;;;4.05;3.85;;;;;;;7.06;53.51;102459.59;6118725;23;20029;-70
2022/04/17 06:21:40;;;;;;;5.35;5.15;;;;;;;7.37;53.10;102472.34;6120204;23;20040;-70
2022/04/17 06:24:07;;;;;;;3.40;3.30;;;;;;;6.90;52.07;102387.56;6112255;23;20032;-70
2022/04/17 06:26:33;;;;;;;5.00;4.80;;;;;;;7.41;51.74;102453.16;6115057;23;20010;-70
2022/04/17 06:29:07;;;;;;;3.40;3.30;;;;;;;7.44;50.95;102437.47;6090346;23;20021;-71
2022/04/17 06:31:34;;;;;;;5.68;5.45;;;;;;;7.66;50.89;102464.22;6118220;23;20100;-70
2022/04/17 06:34:01;;;;;;;3.60;3.50;;;;;;;7.51;51.12;102423.44;6119430;23;20009;-71
2022/04/17 06:36:27;;;;;;;4.55;4.35;;;;;;;7.78;50.88;102461.44;6094773;23;20466;-70
2022/04/17 06:38:54;;;;;;;3.65;3.55;;;;;;;7.89;50.94;102474.38;6118365;23;20092;-71
2022/04/17 06:41:20;;;;;;;3.70;3.60;;;;;;;7.99;50.10;102470.75;6105808;23;20100;-70
2022/04/17 06:43:49;;;;;;;3.80;3.70;;;;;;;7.71;49.44;102410.13;6106336;23;20053;-70
2022/04/17 06:46:15;;;;;;;3.60;3.50;;;;;;;7.11;49.99;102277.66;6117027;23;20611;-69
2022/04/17 06:48:41;;;;;;;5.60;5.35;;;;;;;8.25;49.27;102459.09;6115807;23;20083;-70
2022/04/17 06:51:08;;;;;;;3.50;3.40;;;;;;;8.35;49.55;102449.34;6113069;23;20041;-71
2022/04/17 06:53:34;;;;;;;5.10;4.90;;;;;;;8.54;49.32;102476.16;6110807;23;20387;-71
2022/04/17 06:56:01;;;;;;;3.72;3.60;;;;;;;8.50;48.81;102461.38;6115180;23;20173;-69
2022/04/17 06:58:27;;;;;;;4.20;4.03;;;;;;;8.28;48.94;102404.13;6115657;23;20045;-70
2022/04/17 07:00:54;;;;;;;3.60;3.50;;;;;;;8.69;48.23;102465.44;6110730;23;20096;-69
2022/04/17 07:03:20;;;;;;;3.70;3.60;;;;;;;8.74;48.90;102458.38;6123764;23;20208;-69
2022/04/17 07:05:46;;;;;;;4.03;3.83;;;;;;;8.84;48.37;102459.09;6107464;23;20095;-70
2022/04/17 07:08:13;;;;;;;4.75;4.55;;;;;;;8.64;47.08;102412.31;6105327;23;20427;-69
2022/04/17 07:10:40;;;;;;;5.38;5.18;;;;;;;9.03;45.98;102445.69;6115864;23;20010;-71
2022/04/17 07:13:11;;;;;;;3.70;3.60;;;;;;;9.04;46.89;102444.78;6114317;23;20029;-69
2022/04/17 07:15:37;;;;;;;5.53;5.32;;;;;;;9.01;45.59;102444.84;6109424;23;20029;-69
2022/04/17 07:18:04;;;;;;;3.78;3.67;;;;;;;9.05;46.20;102443.91;6114932;23;20092;-69
2022/04/17 07:20:31;;;;;;;4.85;4.65;;;;;;;9.02;45.96;102433.47;6106771;23;20090;-70
2022/04/17 07:23:00;;;;;;;4.00;3.80;;;;;;;9.24;46.39;102442.69;6116210;23;20021;-68
2022/04/17 07:25:26;;;;;;;4.20;4.00;;;;;;;8.94;46.24;102374.25;6108433;23;20101;-69
2022/04/17 07:27:54;;;;;;;3.97;3.78;;;;;;;9.34;45.80;102430.25;6109783;23;20053;-66
2022/04/17 07:30:26;;;;;;;4.00;3.80;;;;;;;9.48;45.30;102437.84;6099746;23;20425;-69
2022/04/17 07:32:55;;;;;;;3.70;3.60;;;;;;;9.63;45.30;102427.06;6077294;23;20042;-70
2022/04/17 07:35:23;;;;;;;4.10;3.90;;;;;;;9.77;46.17;102426.78;6109514;23;20016;-69
2022/04/17 07:37:55;;;;;;;3.85;3.67;;;;;;;9.43;44.77;102335.75;6104742;23;20024;-69
2022/04/17 07:40:25;;;;;;;4.00;3.80;;;;;;;9.85;44.33;102417.00;6112253;23;20040;-71
2022/04/17 07:42:53;;;;;;;4.40;4.20;;;;;;;10.02;44.03;102428.88;6107389;23;20100;-69
2022/04/17 07:45:20;;;;;;;4.30;4.10;;;;;;;8.99;44.51;102249.31;6108766;23;20005;-69
2022/04/17 07:47:49;;;;;;;3.85;3.75;;;;;;;10.12;43.21;102425.13;6113785;23;20240;-72
2022/04/17 07:50:18;;;;;;;4.05;3.85;;;;;;;10.26;42.91;102438.81;6113296;23;20084;-70
2022/04/17 07:52:45;;;;;;;4.03;3.83;;;;;;;10.22;42.66;102408.28;6117642;23;20052;-72
2022/04/17 07:55:14;;;;;;;4.15;3.95;;;;;;;10.52;43.17;102426.88;6110220;23;20024;-71
2022/04/17 07:58:06;;;;;;;5.93;5.65;;;;;;;10.65;42.94;102424.81;6126323;23;20049;-71
2022/04/17 08:00:44;;;;;;;5.40;5.20;;;;;;;10.61;42.47;102434.53;6105143;23;20074;-71
2022/04/17 08:03:24;;;;;;;4.28;4.07;;;;;;;10.68;41.59;102433.47;6116415;23;20021;-71
2022/04/17 08:05:51;;;;;;;4.30;4.10;;;;;;;10.86;42.70;102429.50;6109729;23;20078;-72
2022/04/17 08:08:18;;;;;;;4.07;3.88;;;;;;;11.01;41.32;102436.16;6116299;23;20363;-72
2022/04/17 08:10:46;;;;;;;4.47;4.28;;;;;;;11.00;41.55;102426.53;6105434;23;20096;-70
2022/04/17 08:13:12;;;;;;;4.30;4.10;;;;;;;11.08;41.11;102419.31;6113562;23;20041;-70
2022/04/17 08:15:39;;;;;;;5.45;5.25;;;;;;;11.02;41.28;102394.97;6103564;23;20009;-69
2022/04/17 08:18:05;;;;;;;4.15;3.95;;;;;;;10.93;40.05;102386.44;6109136;23;20049;-70
2022/04/17 08:20:31;;;;;;;5.63;5.43;;;;;;;11.20;40.05;102422.53;6111347;23;20069;-70
2022/04/17 08:22:58;;;;;;;4.07;3.88;;;;;;;11.23;39.73;102398.81;6097980;23;20078;-68
2022/04/17 08:25:25;;;;;;;4.40;4.20;;;;;;;11.46;39.98;102417.41;6082673;23;20014;-70
2022/04/17 08:27:53;;;;;;;4.95;4.75;;;;;;;11.30;39.66;102374.06;5963101;23;20461;-68
2022/04/17 08:30:22;;;;;;;4.53;4.32;;;;;;;11.61;39.41;102383.69;6081441;23;20377;-70
2022/04/17 08:32:48;;;;;;;4.30;4.10;;;;;;;11.75;38.20;102392.03;6083273;23;20489;-68
2022/04/17 08:35:15;;;;;;;4.50;4.30;;;;;;;12.07;40.18;102401.59;6067281;23;20608;-68
2022/04/17 08:37:45;;;;;;;5.50;5.25;;;;;;;12.03;38.33;102388.56;6082471;23;20467;-68
2022/04/17 08:40:12;;;;;;;4.50;4.30;;;;;;;12.15;38.84;102409.28;6071991;23;20453;-68
2022/04/17 08:42:40;;;;;;;5.68;5.43;;;;;;;12.30;38.83;102400.88;6088445;23;20049;-68
2022/04/17 08:45:10;;;;;;;4.85;4.65;;;;;;;12.46;36.63;102418.81;6058646;23;20022;-71
2022/04/17 08:47:41;;;;;;;4.40;4.20;;;;;;;12.26;37.93;102396.59;6063021;23;20022;-68
2022/04/17 08:50:16;;;;;;;4.30;4.10;;;;;;;12.48;37.45;102399.41;6076678;23;20036;-68
2022/04/17 08:52:53;;;;;;;4.80;4.60;;;;;;;12.18;37.75;102343.34;6092566;23;20431;-68
2022/04/17 08:55:20;;;;;;;4.25;4.05;;;;;;;12.55;37.20;102419.38;6056204;23;20097;-68
2022/04/17 08:57:47;;;;;;;4.30;4.10;;;;;;;12.44;37.44;102336.38;6082529;23;21081;-68
2022/04/17 09:00:17;;;;;;;4.43;4.22;;;;;;;12.94;37.76;102392.56;6075445;23;20186;-69
2022/04/17 09:02:46;;;;;;;5.13;4.93;;;;;;;13.01;37.90;102393.25;6088519;23;20412;-68
2022/04/17 09:05:15;;;;;;;4.40;4.20;;;;;;;13.17;37.19;102388.28;6082477;23;20216;-70
2022/04/17 09:07:46;;;;;;;6.07;5.78;;;;;;;13.24;36.30;102386.28;6090690;23;20075;-68
2022/04/17 09:10:27;;;;;;;4.60;4.40;;;;;;;12.36;36.48;102247.13;6088937;23;20483;-68
2022/04/17 09:12:55;;;;;;;4.30;4.10;;;;;;;12.08;37.75;102161.22;6059848;23;20014;-68
2022/04/17 09:15:24;;;;;;;4.35;4.15;;;;;;;13.66;36.06;102390.91;6073936;23;20044;-72
2022/04/17 09:17:50;;;;;;;4.50;4.30;;;;;;;13.20;36.48;102326.69;6071403;23;20089;-68
2022/04/17 09:20:24;;;;;;;4.40;4.20;;;;;;;13.61;34.64;102382.28;6089213;23;20034;-70
2022/04/17 09:22:55;;;;;;;4.50;4.30;;;;;;;13.48;36.59;102337.94;6073231;23;21227;-67
2022/04/17 09:25:23;;;;;;;4.50;4.30;;;;;;;13.39;36.78;102319.84;6071262;23;20013;-68
2022/04/17 09:28:07;;;;;;;4.38;4.18;;;;;;;13.73;35.60;102361.59;6074499;23;20092;-68
2022/04/17 09:30:45;;;;;;;5.90;5.60;;;;;;;13.84;36.64;102350.63;6061942;23;20533;-68
2022/04/17 09:33:13;;;;;;;4.50;4.30;;;;;;;13.70;36.31;102318.63;6082080;23;20521;-70
2022/04/17 09:35:53;;;;;;;5.82;5.57;;;;;;;13.76;34.61;102350.06;6066689;23;20037;-70
2022/04/17 09:38:23;;;;;;;4.40;4.20;;;;;;;13.64;34.82;102335.56;6081145;23;20220;-70
2022/04/17 09:40:49;;;;;;;4.47;4.28;;;;;;;13.60;34.03;102301.47;6076614;23;20494;-70
2022/04/17 09:43:18;;;;;;;4.60;4.40;;;;;;;13.92;33.43;102345.88;6065428;23;20419;-68
2022/04/17 09:46:02;;;;;;;5.38;5.18;;;;;;;13.94;35.15;102314.16;6077625;23;20021;-70
2022/04/17 09:48:31;;;;;;;5.38;5.13;;;;;;;14.14;33.53;102334.47;6079967;23;20272;-68
2022/04/17 09:50:58;;;;;;;4.47;4.28;;;;;;;14.08;34.24;102297.75;6088558;23;20352;-68
2022/04/17 09:53:40;;;;;;;4.50;4.30;;;;;;;14.43;35.52;102325.31;6084106;23;20006;-68
2022/04/17 09:56:09;;;;;;;4.78;4.57;;;;;;;14.46;33.54;102274.16;6083580;23;20121;-68
2022/04/17 09:58:38;;;;;;;5.97;5.68;;;;;;;14.59;32.53;102309.69;6090070;23;20029;-68
2022/04/17 10:01:15;;;;;;;4.65;4.45;;;;;;;14.65;33.33;102325.28;6054623;23;20031;-68
2022/04/17 10:03:43;;;;;;;4.63;4.43;;;;;;;14.55;33.80;102282.53;6076728;23;20384;-68
2022/04/17 10:06:11;;;;;;;4.50;4.30;;;;;;;14.59;33.08;102288.56;6090979;23;20040;-68
2022/04/17 10:08:42;;;;;;;6.10;5.80;;;;;;;14.55;33.66;102266.69;6074337;23;20006;-68
2022/04/17 10:11:08;;;;;;;4.60;4.40;;;;;;;15.02;33.56;102286.66;6096328;23;20053;-68
2022/04/17 10:13:35;;;;;;;5.97;5.68;;;;;;;15.12;32.22;102292.41;6094308;23;20390;-68
2022/04/17 10:16:06;;;;;;;4.80;4.60;;;;;;;15.10;33.49;102289.81;6092080;23;20113;-68
2022/04/17 10:18:39;;;;;;;6.00;5.70;;;;;;;15.15;32.58;102264.03;6080783;23;20340;-69
2022/04/17 10:21:07;;;;;;;4.70;4.50;;;;;;;15.65;32.34;102290.78;6084963;23;20494;-70
2022/04/17 10:23:37;;;;;;;5.70;5.47;;;;;;;15.64;32.17;102281.16;6101432;23;20077;-69
2022/04/17 10:26:04;;;;;;;4.70;4.50;;;;;;;15.65;31.86;102280.22;6117834;23;20027;-68
2022/04/17 10:28:39;;;;;;;6.22;5.93;;;;;;;15.49;32.08;102246.53;6110672;23;20025;-69
2022/04/17 10:31:19;;;;;;;4.80;4.60;;;;;;;15.62;32.39;102245.97;6123364;23;20112;-69
2022/04/17 10:34:07;;;;;;;4.50;4.30;;;;;;;15.71;32.36;102232.25;6114113;23;20078;-69
2022/04/17 10:37:03;;;;;;;6.45;6.15;;;;;;;16.04;31.46;102258.91;6106612;23;20025;-69
2022/04/17 10:39:35;;;;;;;5.68;5.38;;;;;;;15.74;31.42;102256.00;6108631;23;20510;-69
2022/04/17 10:42:09;;;;;;;4.95;4.60;;;;;;;15.77;31.61;102258.47;6112737;23;20255;-70
2022/04/17 10:44:41;;;;;;;7.03;6.60;;;;;;;15.75;30.91;102241.81;6103851;23;20088;-71
2022/04/17 10:47:20;;;;;;;6.03;5.75;;;;;;;16.13;30.64;102249.63;6122733;23;20014;-69
2022/04/17 10:49:54;;;;;;;5.32;5.13;;;;;;;16.52;30.53;102254.66;6107411;23;20013;-68
2022/04/17 10:52:27;;;;;;;4.90;4.70;;;;;;;16.34;30.34;102232.63;6139919;23;20024;-69
2022/04/17 10:54:55;;;;;;;4.80;4.60;;;;;;;16.42;30.06;102248.13;6119256;23;20489;-69
2022/04/17 10:57:25;;;;;;;5.07;4.72;;;;;;;16.60;29.49;102248.97;6114466;23;20076;-71
2022/04/17 11:00:23;;;;;;;4.70;4.50;;;;;;;16.43;30.19;102254.28;6117564;23;20037;-70
2022/04/17 11:03:11;;;;;;;4.80;4.60;;;;;;;16.49;28.75;102243.34;6120028;23;20579;-69
2022/04/17 11:08:26;;;;;;;5.28;5.03;;;;;;;16.78;29.00;102225.03;6105399;23;20034;-71
2022/04/17 11:10:57;;;;;;;4.70;4.50;;;;;;;16.69;29.82;102223.75;6127202;23;20185;-71
2022/04/17 11:13:27;;;;;;;4.90;4.70;;;;;;;16.12;31.07;102173.75;6122714;23;20074;-69
2022/04/17 11:16:05;;;;;;;4.93;4.72;;;;;;;16.17;30.56;102187.59;6121786;23;20039;-69
2022/04/17 11:18:31;;;;;;;6.47;6.18;;;;;;;16.52;29.78;102203.47;6108631;23;20279;-69
2022/04/17 11:20:58;;;;;;;4.72;4.53;;;;;;;16.70;29.57;102181.25;6112162;23;20018;-69
2022/04/17 11:23:53;;;;;;;5.15;4.95;;;;;;;16.62;30.51;102167.56;6120113;23;20065;-69
2022/04/17 11:26:58;;;;;;;4.75;4.55;;;;;;;16.92;28.64;102196.03;6083565;23;20033;-69
2022/04/17 11:29:36;;;;;;;4.70;4.50;;;;;;;17.09;29.98;102185.31;6110443;23;20279;-73
2022/04/17 11:32:25;;;;;;;5.13;4.93;;;;;;;16.83;28.98;102191.22;6121395;23;20173;-72
2022/04/17 11:34:52;;;;;;;5.00;4.80;;;;;;;16.94;29.36;102195.00;6093939;23;20019;-69
2022/04/17 11:37:21;;;;;;;4.90;4.70;;;;;;;17.06;29.26;102182.84;6112496;23;20041;-69
2022/04/17 11:39:48;;;;;;;4.90;4.70;;;;;;;17.15;28.57;102153.13;6110676;23;20458;-69
2022/04/17 11:42:15;;;;;;;5.03;4.82;;;;;;;17.41;29.11;102165.88;6113975;23;20029;-69
2022/04/17 11:44:45;;;;;;;6.35;6.05;;;;;;;17.68;29.70;102152.78;6109293;23;20103;-68
2022/04/17 11:47:18;;;;;;;4.95;4.75;;;;;;;17.97;28.41;102155.56;6114827;23;20143;-69
2022/04/17 11:49:47;;;;;;;5.55;5.30;;;;;;;17.88;28.61;102160.47;6110810;23;20533;-69
2022/04/17 11:52:16;;;;;;;5.15;4.95;;;;;;;17.85;28.61;102150.00;6124647;23;20024;-69
2022/04/17 11:54:44;;;;;;;6.03;5.72;;;;;;;17.97;29.08;102139.59;6104057;23;20025;-70
2022/04/17 11:57:12;;;;;;;5.00;4.80;;;;;;;17.61;28.31;102082.41;6121173;23;20026;-69
2022/04/17 11:59:49;;;;;;;6.63;6.32;;;;;;;17.99;26.94;102146.53;6114006;23;20029;-69
2022/04/17 12:02:18;;;;;;;5.28;4.97;;;;;;;17.98;27.24;102102.34;6100033;23;20022;-69